Time;durP1;ratioP1;P1;durP2;ratioP2;P2;SDS_P1;SDS_P2;PMS_P1;PMS_P2;Temp;Humidity;BMP_temperature;BMP_pressure;BME280_temperature;BME280_humidity;BME280_pressure;Samples;Min_cycle;Max_cycle;Signal;HPM_P1;HPM_P2
2021/03/03 00:01:16;;;;;;;20.67;13.07;;;;;;;6.61;68.00;98023.94;5079239;28;20223;-69
2021/03/03 00:03:42;;;;;;;20.93;12.60;;;;;;;6.56;68.34;98029.66;5070470;28;20256;-69
2021/03/03 00:06:07;;;;;;;22.73;13.43;;;;;;;6.40;68.97;98029.75;5083138;28;20541;-70
2021/03/03 00:08:33;;;;;;;19.50;13.13;;;;;;;6.42;68.89;98019.13;5077050;28;20542;-70
2021/03/03 00:10:58;;;;;;;23.87;13.00;;;;;;;6.35;69.02;98021.63;5082825;28;20229;-70
2021/03/03 00:13:23;;;;;;;22.13;12.83;;;;;;;6.41;68.91;98026.13;5082859;28;20587;-69
2021/03/03 00:15:49;;;;;;;22.00;12.87;;;;;;;6.38;68.83;98025.66;5074140;28;20610;-69
2021/03/03 00:18:14;;;;;;;23.40;12.30;;;;;;;6.46;68.40;98028.25;5088314;28;20180;-70
2021/03/03 00:20:39;;;;;;;24.83;12.83;;;;;;;6.47;68.12;98020.25;5077238;28;20188;-69
2021/03/03 00:23:05;;;;;;;21.13;12.83;;;;;;;6.36;67.80;98025.00;5082282;28;20173;-70
2021/03/03 00:25:30;;;;;;;22.80;12.83;;;;;;;6.38;67.85;98026.47;5083046;28;20553;-70
2021/03/03 00:27:56;;;;;;;22.10;13.43;;;;;;;6.38;67.92;98020.47;5084640;28;20234;-70
2021/03/03 00:30:21;;;;;;;19.60;12.10;;;;;;;6.25;68.17;98023.59;5083592;28;20646;-69
2021/03/03 00:32:47;;;;;;;20.90;12.90;;;;;;;6.28;67.72;98020.66;5078336;28;20270;-69
2021/03/03 00:35:13;;;;;;;20.87;13.07;;;;;;;6.27;67.71;98019.03;5078868;28;20169;-69
2021/03/03 00:37:38;;;;;;;18.27;12.03;;;;;;;6.21;67.82;98017.91;5071441;28;20185;-68
2021/03/03 00:40:05;;;;;;;21.50;12.23;;;;;;;6.23;67.31;98023.78;5079784;28;20210;-70
2021/03/03 00:42:31;;;;;;;27.30;13.03;;;;;;;6.22;67.71;98023.94;5079116;28;20223;-69
2021/03/03 00:44:56;;;;;;;20.63;12.13;;;;;;;6.18;67.40;98025.28;5082080;28;20180;-69
2021/03/03 00:47:21;;;;;;;19.20;12.47;;;;;;;6.10;68.14;98018.28;5075313;28;20225;-69
2021/03/03 00:49:47;;;;;;;19.67;12.57;;;;;;;6.09;67.59;98015.84;5078912;28;20579;-69
2021/03/03 00:52:12;;;;;;;21.97;12.83;;;;;;;6.15;67.23;98017.78;5084979;28;20208;-69
2021/03/03 00:54:37;;;;;;;18.77;12.57;;;;;;;6.37;66.34;98016.22;5080659;28;20213;-68
2021/03/03 00:57:03;;;;;;;20.47;11.60;;;;;;;6.40;66.40;98014.13;5079152;28;20185;-70
2021/03/03 00:59:28;;;;;;;18.07;11.57;;;;;;;6.47;65.77;98009.81;5087536;28;20234;-69
2021/03/03 01:01:54;;;;;;;21.93;11.57;;;;;;;6.54;65.40;98015.97;5078738;28;20192;-70
2021/03/03 01:04:19;;;;;;;20.77;11.80;;;;;;;6.68;64.69;98014.47;5087116;28;20180;-70
2021/03/03 01:06:44;;;;;;;26.90;12.13;;;;;;;6.78;64.51;98006.41;5073581;28;20264;-69
2021/03/03 01:09:10;;;;;;;25.77;11.60;;;;;;;6.74;64.56;98010.34;5075118;28;20183;-69
2021/03/03 01:11:35;;;;;;;17.53;11.23;;;;;;;6.72;64.20;98007.09;5071511;28;20209;-69
2021/03/03 01:14:01;;;;;;;20.10;11.03;;;;;;;6.90;63.59;97999.81;5078600;28;20648;-70
2021/03/03 01:16:27;;;;;;;21.87;11.30;;;;;;;6.89;63.77;98000.81;5083005;28;20598;-70
2021/03/03 01:18:52;;;;;;;21.77;11.60;;;;;;;6.95;63.55;98003.53;5072713;28;20180;-69
2021/03/03 01:21:17;;;;;;;18.30;11.10;;;;;;;6.94;63.19;97999.31;5081901;28;20185;-69
2021/03/03 01:23:43;;;;;;;17.27;10.43;;;;;;;6.91;63.50;97994.41;5083222;28;20272;-69
2021/03/03 01:26:08;;;;;;;19.93;11.00;;;;;;;6.98;63.02;97995.34;5078890;28;20216;-69
2021/03/03 01:28:33;;;;;;;22.37;12.10;;;;;;;7.04;63.09;97996.47;5084874;28;20191;-69
2021/03/03 01:30:59;;;;;;;20.83;11.40;;;;;;;7.03;63.12;97997.44;5080672;28;20256;-69
2021/03/03 01:33:29;;;;;;;19.27;10.87;;;;;;;6.92;63.70;97990.03;5088290;28;20217;-69
2021/03/03 01:35:55;;;;;;;18.10;11.07;;;;;;;6.95;63.41;97992.31;5088823;28;20249;-69
2021/03/03 01:38:21;;;;;;;21.00;11.97;;;;;;;6.93;63.61;97986.44;5090919;28;20625;-69
2021/03/03 01:40:47;;;;;;;23.33;11.67;;;;;;;6.77;64.37;97989.97;5078689;28;20181;-69
2021/03/03 01:43:13;;;;;;;19.97;10.97;;;;;;;6.77;64.56;97984.75;5093816;28;20685;-69
2021/03/03 01:45:39;;;;;;;19.43;11.20;;;;;;;6.78;64.04;97983.78;5084606;28;20263;-69
2021/03/03 01:48:05;;;;;;;16.20;10.80;;;;;;;6.71;64.47;97982.84;5074981;28;20587;-72
2021/03/03 01:50:30;;;;;;;20.77;12.03;;;;;;;6.60;64.83;97986.66;5073696;28;20228;-72
2021/03/03 01:52:56;;;;;;;18.57;11.47;;;;;;;6.49;65.18;97981.03;5088850;28;20268;-70
2021/03/03 01:55:22;;;;;;;18.00;12.03;;;;;;;6.50;65.12;97982.66;5081507;28;20295;-71
2021/03/03 01:57:47;;;;;;;21.27;12.00;;;;;;;6.53;65.38;97975.28;5086057;28;20740;-69
2021/03/03 02:00:13;;;;;;;19.83;11.83;;;;;;;6.57;65.17;97968.78;5079521;28;20240;-69
2021/03/03 02:02:39;;;;;;;19.67;11.50;;;;;;;6.52;65.49;97970.28;5079450;28;20242;-68
2021/03/03 02:05:05;;;;;;;18.00;11.67;;;;;;;6.52;65.25;97972.88;5084724;28;20658;-69
2021/03/03 02:07:40;;;;;;;20.17;12.27;;;;;;;6.37;66.18;97983.19;5086156;28;20571;-71
2021/03/03 02:10:10;;;;;;;20.30;11.87;;;;;;;6.32;66.63;97971.66;5077218;28;20172;-69
2021/03/03 02:12:56;;;;;;;19.53;11.83;;;;;;;6.32;66.27;97977.69;5078823;28;20755;-70
2021/03/03 02:15:22;;;;;;;21.87;11.37;;;;;;;6.30;66.59;97968.44;5081634;28;20277;-70
2021/03/03 02:17:49;;;;;;;20.67;12.03;;;;;;;6.33;66.11;97971.50;5087729;28;20196;-69
2021/03/03 02:20:16;;;;;;;18.47;11.90;;;;;;;6.29;66.45;97967.63;5076896;28;20672;-69
2021/03/03 02:23:24;;;;;;;20.83;12.20;;;;;;;6.34;66.72;97960.13;5088064;28;20654;-69
2021/03/03 02:25:50;;;;;;;23.83;12.23;;;;;;;6.31;66.41;97970.84;5072787;28;20690;-69
2021/03/03 02:28:16;;;;;;;20.57;11.43;;;;;;;6.39;65.99;97964.81;5075766;28;20192;-69
2021/03/03 02:30:44;;;;;;;20.40;12.13;;;;;;;6.35;66.09;97971.34;5088607;28;20189;-68
2021/03/03 02:33:12;;;;;;;21.30;11.73;;;;;;;6.46;65.83;97963.97;5084709;28;20220;-71
2021/03/03 02:35:40;;;;;;;21.10;11.80;;;;;;;6.38;66.38;97963.19;5075500;28;20173;-70
2021/03/03 02:38:06;;;;;;;21.07;11.27;;;;;;;6.31;66.48;97964.84;5081093;28;20272;-70
2021/03/03 02:40:33;;;;;;;17.47;10.60;;;;;;;6.37;66.29;97964.97;5073982;28;20259;-70
2021/03/03 02:42:59;;;;;;;19.17;11.50;;;;;;;6.31;66.43;97967.44;5078896;28;20289;-70
2021/03/03 02:45:26;;;;;;;20.80;12.07;;;;;;;6.17;67.17;97961.97;5083560;28;20173;-71
2021/03/03 02:47:53;;;;;;;22.33;11.93;;;;;;;6.22;67.22;97971.88;5078808;28;20185;-69
2021/03/03 02:50:18;;;;;;;19.33;11.80;;;;;;;6.23;67.42;97974.31;5081433;28;20188;-70
2021/03/03 02:52:57;;;;;;;21.40;12.47;;;;;;;6.20;66.96;97972.03;5081323;28;20211;-69
2021/03/03 02:55:26;;;;;;;18.77;12.57;;;;;;;6.30;66.43;97973.66;5073516;28;20571;-69
2021/03/03 02:57:53;;;;;;;17.67;11.43;;;;;;;6.24;67.02;97982.94;5080472;28;20242;-70
2021/03/03 03:00:25;;;;;;;21.67;11.13;;;;;;;6.31;66.65;97977.84;5089456;28;20668;-70
2021/03/03 03:03:02;;;;;;;23.00;12.77;;;;;;;6.36;66.59;97986.78;5082651;28;20177;-70
2021/03/03 03:05:29;;;;;;;19.93;11.87;;;;;;;6.19;67.20;97980.00;5083450;28;20223;-70
2021/03/03 03:07:58;;;;;;;21.50;12.00;;;;;;;6.16;67.20;97969.94;5080302;28;20193;-70
2021/03/03 03:10:26;;;;;;;30.40;11.70;;;;;;;6.08;67.57;97967.38;5089022;28;20283;-69
2021/03/03 03:12:54;;;;;;;21.27;11.50;;;;;;;6.12;67.64;97959.09;5083635;28;20476;-70
2021/03/03 03:15:24;;;;;;;23.40;12.10;;;;;;;6.20;67.45;97946.00;5084447;28;20644;-70
2021/03/03 03:17:54;;;;;;;20.10;11.27;;;;;;;6.09;67.88;97959.41;5072683;28;20195;-70
2021/03/03 03:20:20;;;;;;;20.93;11.87;;;;;;;6.03;68.37;97960.06;5088079;28;20179;-70
2021/03/03 03:22:47;;;;;;;18.70;12.37;;;;;;;5.94;68.31;97963.69;5080233;28;20189;-70
2021/03/03 03:25:17;;;;;;;17.93;12.60;;;;;;;5.96;68.44;97958.34;5080317;28;20187;-70
2021/03/03 03:27:43;;;;;;;21.00;13.23;;;;;;;5.82;68.70;97958.00;5072520;28;20842;-69
2021/03/03 03:30:11;;;;;;;17.87;11.97;;;;;;;5.71;69.16;97960.16;5082950;28;20188;-70
2021/03/03 03:32:37;;;;;;;20.47;12.00;;;;;;;5.72;68.96;97957.41;5078074;28;20260;-70
2021/03/03 03:35:03;;;;;;;19.80;12.30;;;;;;;5.75;69.16;97961.44;5074329;28;20840;-70
2021/03/03 03:37:30;;;;;;;20.50;11.70;;;;;;;5.60;69.71;97958.72;5087352;28;20238;-71
2021/03/03 03:39:55;;;;;;;18.70;12.10;;;;;;;5.57;70.23;97963.47;5081145;28;20184;-70
2021/03/03 03:42:22;;;;;;;22.27;12.70;;;;;;;5.66;69.91;97963.25;5087101;28;20539;-71
2021/03/03 03:44:48;;;;;;;22.53;13.43;;;;;;;5.60;69.50;97960.50;5075037;28;20184;-70
2021/03/03 03:47:18;;;;;;;24.23;12.20;;;;;;;5.48;70.38;97967.84;5088890;28;20260;-70
2021/03/03 03:49:45;;;;;;;20.33;11.57;;;;;;;5.51;70.36;97969.31;5072186;28;20252;-69
2021/03/03 03:52:15;;;;;;;19.47;12.23;;;;;;;5.58;69.83;97967.66;5083555;28;20201;-70
2021/03/03 03:54:46;;;;;;;20.90;12.33;;;;;;;5.48;70.17;97964.44;5082009;28;20170;-71
2021/03/03 03:57:12;;;;;;;19.07;11.20;;;;;;;5.46;70.03;97963.81;5082696;28;20172;-71
2021/03/03 03:59:37;;;;;;;19.67;12.40;;;;;;;5.42;70.56;97977.09;5080610;28;20196;-69
2021/03/03 04:02:02;;;;;;;19.90;12.20;;;;;;;5.45;70.66;97978.59;5082844;28;20173;-69
2021/03/03 04:04:28;;;;;;;20.20;12.07;;;;;;;5.42;70.12;97987.50;5085485;28;20338;-69
2021/03/03 04:06:53;;;;;;;21.30;12.13;;;;;;;5.34;70.25;97977.13;5078241;28;20502;-69
2021/03/03 04:09:19;;;;;;;20.20;12.47;;;;;;;5.26;70.72;97979.72;5088114;28;20180;-69
2021/03/03 04:11:44;;;;;;;19.37;11.93;;;;;;;5.15;71.19;97974.88;5074713;28;20694;-68
2021/03/03 04:14:10;;;;;;;17.83;11.70;;;;;;;5.14;71.54;97975.00;5082679;28;20191;-70
2021/03/03 04:16:35;;;;;;;20.00;11.63;;;;;;;5.00;71.39;97981.69;5076548;28;20212;-70
2021/03/03 04:19:02;;;;;;;20.33;13.07;;;;;;;5.09;71.54;97980.72;5080236;28;20634;-69
2021/03/03 04:21:27;;;;;;;21.27;12.07;;;;;;;5.12;71.56;97987.38;5078836;28;20196;-70
2021/03/03 04:23:52;;;;;;;19.60;12.00;;;;;;;5.11;71.27;97980.56;5085932;28;20197;-70
2021/03/03 04:26:18;;;;;;;19.97;12.87;;;;;;;5.29;70.72;97986.41;5078673;28;20215;-71
2021/03/03 04:28:43;;;;;;;19.53;12.27;;;;;;;5.30;70.59;97991.41;5079429;28;20553;-70
2021/03/03 04:31:09;;;;;;;19.07;12.40;;;;;;;5.34;70.77;97992.72;5079182;28;20220;-71
2021/03/03 04:33:34;;;;;;;19.13;12.10;;;;;;;5.33;70.78;97988.50;5079236;28;20579;-70
2021/03/03 04:35:59;;;;;;;21.30;13.13;;;;;;;5.55;69.86;97979.22;5076598;28;20189;-71
2021/03/03 04:38:25;;;;;;;20.13;11.97;;;;;;;5.59;69.68;97982.28;5080186;28;20181;-70
2021/03/03 04:40:50;;;;;;;18.83;12.23;;;;;;;5.52;69.78;97983.94;5086599;28;20653;-70
2021/03/03 04:43:15;;;;;;;18.07;12.67;;;;;;;5.55;70.05;97984.41;5079429;28;20212;-70
2021/03/03 04:45:41;;;;;;;19.33;12.37;;;;;;;5.57;69.52;97989.47;5083077;28;20621;-70
2021/03/03 04:48:07;;;;;;;20.33;12.03;;;;;;;5.53;69.69;97988.97;5076206;28;20200;-69
2021/03/03 04:50:32;;;;;;;21.77;12.27;;;;;;;5.57;69.43;97984.25;5087721;28;20189;-70
2021/03/03 04:52:58;;;;;;;19.13;12.40;;;;;;;5.52;70.05;97984.72;5074726;28;20249;-71
2021/03/03 04:55:24;;;;;;;19.20;11.67;;;;;;;5.29;70.76;97976.81;5082719;28;20665;-70
2021/03/03 04:57:49;;;;;;;20.97;11.80;;;;;;;5.24;71.31;97986.88;5086478;28;20188;-69
2021/03/03 05:00:15;;;;;;;21.33;11.93;;;;;;;5.12;71.31;97983.00;5075298;28;20699;-70
2021/03/03 05:02:41;;;;;;;17.87;12.10;;;;;;;5.21;70.92;97978.59;5085104;28;20246;-70
2021/03/03 05:05:07;;;;;;;17.67;11.87;;;;;;;5.08;71.45;97979.06;5084540;28;20747;-70
2021/03/03 05:07:32;;;;;;;18.83;11.53;;;;;;;4.93;72.02;97976.31;5085640;28;20188;-71
2021/03/03 05:09:57;;;;;;;22.90;12.33;;;;;;;4.94;72.13;97982.34;5085471;28;20275;-70
2021/03/03 05:12:23;;;;;;;19.57;12.20;;;;;;;4.87;71.68;97974.38;5078575;28;20188;-70
2021/03/03 05:14:49;;;;;;;19.93;12.30;;;;;;;4.84;72.29;97971.28;5086524;28;20593;-69
2021/03/03 05:17:14;;;;;;;18.77;12.07;;;;;;;4.84;72.24;97974.69;5087604;28;20218;-69
2021/03/03 05:19:39;;;;;;;18.47;12.37;;;;;;;4.86;71.88;97975.34;5086339;28;20210;-70
2021/03/03 05:22:05;;;;;;;18.97;11.50;;;;;;;4.75;72.25;97975.66;5077947;28;20180;-70
2021/03/03 05:24:30;;;;;;;20.83;13.20;;;;;;;4.74;72.33;97971.41;5087123;28;20184;-69
2021/03/03 05:26:55;;;;;;;21.00;12.17;;;;;;;4.92;71.89;97972.09;5084277;28;20711;-69
2021/03/03 05:29:21;;;;;;;19.37;11.70;;;;;;;4.62;72.53;97964.94;5095026;28;20207;-69
2021/03/03 05:31:46;;;;;;;21.27;12.10;;;;;;;4.55;73.73;97964.75;5085609;28;20205;-68
2021/03/03 05:34:11;;;;;;;18.10;11.93;;;;;;;4.56;73.11;97963.78;5086438;28;20251;-69
2021/03/03 05:36:37;;;;;;;17.07;11.73;;;;;;;4.59;73.58;97965.25;5094877;28;20185;-69
2021/03/03 05:39:03;;;;;;;20.60;12.20;;;;;;;4.57;73.65;97960.19;5086301;28;20221;-69
2021/03/03 05:41:29;;;;;;;16.87;11.53;;;;;;;4.57;73.22;97961.97;5082366;28;20186;-70
2021/03/03 05:43:55;;;;;;;19.77;12.30;;;;;;;4.51;73.10;97955.63;5074316;28;20177;-69
2021/03/03 05:46:21;;;;;;;19.73;12.07;;;;;;;4.56;73.15;97952.59;5086919;28;20197;-69
2021/03/03 05:48:56;;;;;;;22.57;13.33;;;;;;;4.64;73.02;97955.19;5082745;28;20539;-69
2021/03/03 05:51:23;;;;;;;20.57;12.90;;;;;;;4.52;73.23;97948.66;5089442;28;20283;-71
2021/03/03 05:53:49;;;;;;;22.10;12.70;;;;;;;4.47;73.33;97951.75;5078123;28;20279;-69
2021/03/03 05:56:15;;;;;;;20.43;12.80;;;;;;;4.46;73.52;97957.09;5090154;28;20272;-69
2021/03/03 05:58:41;;;;;;;17.07;11.63;;;;;;;4.40;72.91;97958.53;5080669;28;20326;-70
2021/03/03 06:01:09;;;;;;;16.47;11.67;;;;;;;4.39;73.23;97954.34;5078892;28;20185;-69
2021/03/03 06:03:36;;;;;;;20.93;12.53;;;;;;;4.40;73.60;97961.13;5083976;28;20646;-70
2021/03/03 06:06:02;;;;;;;23.70;12.03;;;;;;;4.42;73.02;97959.19;5078223;28;20191;-70
2021/03/03 06:08:29;;;;;;;19.40;11.73;;;;;;;4.40;73.72;97962.94;5091265;28;20185;-70
2021/03/03 06:10:56;;;;;;;20.53;12.20;;;;;;;4.39;72.93;97963.91;5092184;28;20200;-70
2021/03/03 06:13:21;;;;;;;17.17;11.97;;;;;;;4.46;72.98;97968.28;5078169;28;20196;-69
2021/03/03 06:15:47;;;;;;;17.27;11.43;;;;;;;4.49;72.93;97969.75;5087956;28;20553;-69
2021/03/03 06:18:14;;;;;;;17.13;12.13;;;;;;;4.53;73.38;97974.47;5075656;28;20192;-69
2021/03/03 06:20:42;;;;;;;19.60;12.50;;;;;;;4.55;73.47;97971.72;5091529;28;20570;-70
2021/03/03 06:23:17;;;;;;;19.60;12.40;;;;;;;4.46;73.86;97975.25;5090225;28;20851;-69
2021/03/03 06:25:45;;;;;;;17.50;12.53;;;;;;;4.53;73.60;97973.66;5081763;28;20181;-69
2021/03/03 06:28:11;;;;;;;18.50;12.10;;;;;;;4.58;73.20;97974.81;5091484;28;20180;-67
2021/03/03 06:30:36;;;;;;;21.47;12.47;;;;;;;4.81;72.31;97977.59;5093498;28;20180;-70
2021/03/03 06:33:04;;;;;;;20.67;11.43;;;;;;;4.98;71.43;97978.44;5078312;28;20638;-72
2021/03/03 06:35:41;;;;;;;19.87;12.20;;;;;;;5.04;71.51;97980.38;5088699;28;20177;-70
2021/03/03 06:38:09;;;;;;;20.67;11.83;;;;;;;5.16;70.40;97984.28;5076400;28;20609;-70
2021/03/03 06:40:48;;;;;;;18.07;11.80;;;;;;;5.30;69.97;97975.00;5074446;28;20260;-70
2021/03/03 06:43:22;;;;;;;19.20;11.20;;;;;;;5.40;69.36;97978.28;5089656;28;20218;-69
2021/03/03 06:45:48;;;;;;;17.50;12.07;;;;;;;5.55;69.09;97984.41;5074013;28;20180;-67
2021/03/03 06:48:13;;;;;;;21.40;12.77;;;;;;;5.62;68.32;97976.78;5078448;28;20184;-71
2021/03/03 06:50:40;;;;;;;18.37;12.07;;;;;;;5.76;67.69;97983.88;5084804;28;20314;-70
2021/03/03 06:53:06;;;;;;;19.13;11.93;;;;;;;5.91;67.44;97981.44;5078351;28;20221;-70
2021/03/03 06:55:46;;;;;;;17.43;12.30;;;;;;;5.93;67.61;97987.28;5090087;28;20196;-70
2021/03/03 06:58:29;;;;;;;19.20;12.27;;;;;;;5.98;66.36;97985.78;5081327;28;20211;-69
2021/03/03 07:00:57;;;;;;;20.47;12.47;;;;;;;6.10;66.07;97981.84;5089938;28;20261;-70
2021/03/03 07:03:34;;;;;;;20.33;12.80;;;;;;;6.14;65.93;97977.09;5087033;28;20188;-70
2021/03/03 07:06:03;;;;;;;20.47;12.17;;;;;;;6.23;65.68;97987.34;5082885;28;20177;-70
2021/03/03 07:08:29;;;;;;;20.27;11.93;;;;;;;6.32;65.49;97993.31;5084463;28;20177;-70
2021/03/03 07:10:55;;;;;;;17.17;12.17;;;;;;;6.40;65.17;97995.88;5082726;28;20185;-69
2021/03/03 07:13:41;;;;;;;20.07;12.37;;;;;;;6.50;63.74;97993.06;5085265;28;20230;-70
2021/03/03 07:16:08;;;;;;;16.70;11.33;;;;;;;6.51;63.48;97987.69;5072916;28;20230;-70
2021/03/03 07:18:39;;;;;;;19.20;12.00;;;;;;;6.61;63.54;97990.06;5076897;28;20783;-69
2021/03/03 07:21:07;;;;;;;19.97;12.47;;;;;;;6.75;63.24;97985.91;5080498;28;20267;-69
2021/03/03 07:23:49;;;;;;;20.57;12.73;;;;;;;6.69;63.58;97996.03;5076743;28;20200;-70
2021/03/03 07:26:16;;;;;;;22.73;12.27;;;;;;;6.82;64.40;97999.88;5083538;28;20219;-70
2021/03/03 07:28:43;;;;;;;18.53;11.87;;;;;;;6.92;62.72;98000.44;5079212;28;20188;-70
2021/03/03 07:31:10;;;;;;;19.60;12.10;;;;;;;6.96;61.54;97999.94;5073863;28;20630;-70
2021/03/03 07:33:35;;;;;;;19.47;12.37;;;;;;;7.06;61.06;97997.91;5083654;28;20304;-70
2021/03/03 07:36:04;;;;;;;18.97;12.67;;;;;;;7.15;60.32;97993.44;5082624;28;20268;-70
2021/03/03 07:38:32;;;;;;;16.83;12.27;;;;;;;7.25;60.05;97998.41;5074265;28;20981;-70
2021/03/03 07:41:06;;;;;;;17.00;11.87;;;;;;;7.33;60.00;97990.53;5090591;28;20651;-70
2021/03/03 07:43:33;;;;;;;17.90;11.83;;;;;;;7.43;59.55;97985.88;5080419;28;20187;-70
2021/03/03 07:46:01;;;;;;;18.03;11.87;;;;;;;7.48;59.64;97980.94;5087362;28;20181;-69
2021/03/03 07:48:28;;;;;;;20.80;12.80;;;;;;;7.65;59.35;97992.84;5088639;28;20297;-70
2021/03/03 07:50:54;;;;;;;23.03;13.80;;;;;;;7.65;59.09;97992.03;5078108;28;20287;-67
2021/03/03 07:53:19;;;;;;;19.57;11.50;;;;;;;7.53;59.04;97982.03;5086823;28;20677;-70
2021/03/03 07:55:45;;;;;;;20.47;12.57;;;;;;;7.70;60.37;97984.47;5087542;28;20548;-70
2021/03/03 07:58:12;;;;;;;22.00;13.00;;;;;;;7.82;60.73;97988.25;5071148;28;20790;-70
2021/03/03 08:00:40;;;;;;;23.27;13.53;;;;;;;7.93;60.75;97995.66;5071636;28;20211;-69
2021/03/03 08:03:05;;;;;;;23.17;13.20;;;;;;;7.99;60.37;97988.91;5070842;28;20268;-70
2021/03/03 08:05:34;;;;;;;19.17;12.23;;;;;;;8.04;59.44;97999.59;5076298;28;20185;-70
2021/03/03 08:08:24;;;;;;;20.27;12.23;;;;;;;8.04;61.07;97994.38;5079766;28;20200;-70
2021/03/03 08:10:51;;;;;;;19.10;12.47;;;;;;;8.10;61.26;97984.03;5086262;28;20185;-71
2021/03/03 08:13:31;;;;;;;21.57;12.67;;;;;;;8.13;61.05;97975.84;5089728;28;20680;-70
2021/03/03 08:15:58;;;;;;;22.43;14.00;;;;;;;8.14;60.79;97976.63;5072802;28;20177;-70
2021/03/03 08:18:35;;;;;;;22.07;14.50;;;;;;;7.97;61.30;97978.63;5072723;28;20182;-71
2021/03/03 08:21:21;;;;;;;24.80;15.03;;;;;;;7.91;61.64;97974.94;5083698;28;20258;-70
2021/03/03 08:23:48;;;;;;;22.80;14.13;;;;;;;7.90;61.70;97986.41;5078768;28;20195;-70
2021/03/03 08:26:16;;;;;;;19.70;13.63;;;;;;;7.96;61.62;97977.03;5086008;28;20188;-70
2021/03/03 08:28:52;;;;;;;21.67;13.03;;;;;;;8.03;60.96;97990.16;5080032;28;20566;-71
2021/03/03 08:31:19;;;;;;;19.13;13.10;;;;;;;8.06;60.61;97989.81;5090372;28;20200;-70
2021/03/03 08:33:48;;;;;;;19.73;13.33;;;;;;;8.23;60.19;97976.38;5075303;28;20326;-70
2021/03/03 08:36:19;;;;;;;19.80;13.57;;;;;;;8.24;60.24;97985.03;5071776;28;20243;-70
2021/03/03 08:38:54;;;;;;;25.13;13.77;;;;;;;8.13;60.23;97991.53;5083783;28;20188;-70
2021/03/03 08:41:22;;;;;;;18.80;12.30;;;;;;;8.28;59.16;97994.09;5077632;28;20181;-71
2021/03/03 08:43:58;;;;;;;18.43;12.33;;;;;;;8.31;59.07;97991.97;5084376;28;20599;-71
2021/03/03 08:46:23;;;;;;;17.53;13.07;;;;;;;8.53;58.64;97998.06;5082678;28;20181;-71
2021/03/03 08:48:52;;;;;;;18.37;12.77;;;;;;;8.41;58.04;97989.09;5084282;28;20626;-71
2021/03/03 08:51:28;;;;;;;17.70;13.03;;;;;;;8.39;57.91;97991.06;5088651;28;20680;-71
2021/03/03 08:53:58;;;;;;;20.57;12.83;;;;;;;8.45;58.41;97984.28;5077608;28;20184;-68
2021/03/03 08:56:34;;;;;;;17.50;13.07;;;;;;;8.60;57.57;97991.09;5080591;28;20195;-70
2021/03/03 08:59:01;;;;;;;20.43;12.97;;;;;;;8.74;57.23;97982.44;5084055;28;20173;-70
2021/03/03 09:02:26;;;;;;;22.73;12.70;;;;;;;8.85;57.02;97988.16;5081323;28;20592;-70
2021/03/03 09:04:49;;;;;;;18.90;12.87;;;;;;;9.11;57.18;97980.56;5075251;28;20727;-70
2021/03/03 09:07:20;;;;;;;17.80;12.30;;;;;;;9.16;56.84;97981.63;5089007;28;20751;-71
2021/03/03 09:09:49;;;;;;;19.33;12.33;;;;;;;9.13;57.05;97978.56;5071220;28;20283;-70
2021/03/03 09:12:20;;;;;;;18.57;11.90;;;;;;;9.24;57.53;97979.88;5077534;28;20208;-70
2021/03/03 09:14:48;;;;;;;16.83;12.13;;;;;;;9.39;57.29;97985.81;5084501;28;20185;-71
2021/03/03 09:17:25;;;;;;;17.80;12.50;;;;;;;9.38;57.80;97984.19;5078797;28;20197;-72
2021/03/03 09:19:51;;;;;;;18.60;12.73;;;;;;;9.41;57.79;97986.47;5071725;28;20177;-72
2021/03/03 09:22:22;;;;;;;19.70;11.97;;;;;;;9.45;57.49;97990.31;5071177;28;20181;-72
2021/03/03 09:25:06;;;;;;;17.33;12.40;;;;;;;9.53;56.37;97983.09;5078241;28;20181;-71
2021/03/03 09:27:32;;;;;;;18.20;12.47;;;;;;;9.45;57.69;97985.06;5086555;28;20578;-72
2021/03/03 09:29:57;;;;;;;20.53;12.93;;;;;;;9.43;58.23;97992.28;5083051;28;20196;-68
2021/03/03 09:32:24;;;;;;;20.43;12.93;;;;;;;9.55;57.81;97982.94;5079946;28;20200;-72
2021/03/03 09:34:58;;;;;;;26.30;12.37;;;;;;;9.64;57.94;97979.16;5076372;28;20216;-68
2021/03/03 09:37:24;;;;;;;21.07;13.30;;;;;;;9.69;58.15;97984.66;5089630;28;20177;-65
2021/03/03 09:39:54;;;;;;;21.23;13.73;;;;;;;9.62;58.59;97993.44;5089527;28;20189;-71
2021/03/03 09:42:19;;;;;;;18.57;12.70;;;;;;;9.67;58.30;97994.50;5073234;28;20654;-69
2021/03/03 09:44:46;;;;;;;21.53;14.00;;;;;;;9.85;58.60;97983.53;5081155;28;20196;-69
2021/03/03 09:47:20;;;;;;;24.17;14.50;;;;;;;9.86;59.01;97985.94;5074088;28;20234;-71
2021/03/03 09:49:46;;;;;;;27.17;14.27;;;;;;;9.70;59.44;97980.19;5081900;28;20263;-70
2021/03/03 09:52:11;;;;;;;25.20;13.93;;;;;;;9.81;59.76;97979.66;5088515;28;20284;-69
2021/03/03 09:54:38;;;;;;;19.40;14.17;;;;;;;9.80;58.95;97973.66;5073291;28;20523;-69
2021/03/03 09:57:05;;;;;;;20.07;13.47;;;;;;;9.56;60.60;97968.84;5072385;28;20222;-68
2021/03/03 09:59:32;;;;;;;21.13;13.23;;;;;;;9.67;59.85;97970.13;5083037;28;20185;-68
2021/03/03 10:01:58;;;;;;;19.97;12.73;;;;;;;9.81;59.02;97970.00;5086310;28;20185;-67
2021/03/03 10:04:25;;;;;;;19.30;12.47;;;;;;;9.80;59.08;97976.28;5084364;28;20211;-68
2021/03/03 10:06:50;;;;;;;17.63;12.57;;;;;;;9.94;58.07;97975.34;5080200;28;20181;-68
2021/03/03 10:09:16;;;;;;;23.30;13.13;;;;;;;10.12;56.97;97976.63;5078045;28;20728;-68
2021/03/03 10:11:42;;;;;;;19.23;12.77;;;;;;;10.05;56.47;97973.16;5083644;28;20688;-67
2021/03/03 10:14:11;;;;;;;16.33;12.17;;;;;;;10.03;56.45;97974.16;5075764;28;20224;-69
2021/03/03 10:16:36;;;;;;;16.23;12.87;;;;;;;10.02;56.07;97977.00;5079226;28;20181;-68
2021/03/03 10:19:09;;;;;;;19.13;12.60;;;;;;;9.94;56.87;97972.72;5083560;28;20227;-69
2021/03/03 10:21:44;;;;;;;20.30;13.57;;;;;;;10.08;57.55;97970.19;5078700;28;20174;-69
2021/03/03 10:24:18;;;;;;;21.90;13.37;;;;;;;10.03;58.14;97973.34;5086312;28;20187;-69
2021/03/03 10:26:50;;;;;;;18.30;13.20;;;;;;;9.94;58.60;97977.94;5083882;28;20178;-70
2021/03/03 10:29:35;;;;;;;19.10;13.83;;;;;;;10.07;58.84;97977.22;5076358;28;20197;-69
2021/03/03 10:32:08;;;;;;;18.03;12.73;;;;;;;10.17;58.46;97976.91;5090967;28;20208;-69
2021/03/03 10:34:34;;;;;;;21.57;13.53;;;;;;;10.31;58.46;97978.56;5078727;28;20236;-69
2021/03/03 10:36:59;;;;;;;21.23;13.50;;;;;;;10.46;58.46;97974.00;5082348;28;20185;-69
2021/03/03 10:39:29;;;;;;;21.07;13.37;;;;;;;10.61;58.07;97985.13;5083811;28;20225;-69
2021/03/03 10:42:05;;;;;;;22.87;12.93;;;;;;;10.59;57.29;97981.13;5080993;28;20215;-68
2021/03/03 10:44:42;;;;;;;17.57;12.83;;;;;;;10.51;58.45;97984.72;5086914;28;20275;-69
2021/03/03 10:47:09;;;;;;;20.17;13.33;;;;;;;10.78;58.00;97982.97;5073062;28;20234;-71
2021/03/03 10:49:38;;;;;;;22.53;13.40;;;;;;;10.68;58.52;97980.72;5073766;28;20648;-70
2021/03/03 10:52:19;;;;;;;17.07;12.23;;;;;;;10.65;58.41;97975.88;5084820;28;20208;-70
2021/03/03 10:54:45;;;;;;;18.17;13.73;;;;;;;10.62;58.91;97968.41;5087782;28;20180;-70
2021/03/03 10:57:10;;;;;;;16.37;12.80;;;;;;;10.50;59.00;97977.03;5091493;28;20195;-70
2021/03/03 10:59:37;;;;;;;20.17;13.27;;;;;;;10.55;58.95;97974.63;5083783;28;20212;-70
2021/03/03 11:02:04;;;;;;;23.30;13.87;;;;;;;10.89;57.99;97966.66;5074722;28;20188;-69
2021/03/03 11:04:38;;;;;;;19.10;12.53;;;;;;;11.00;57.97;97966.06;5087672;28;20185;-69
2021/03/03 11:07:04;;;;;;;26.63;13.90;;;;;;;11.04;57.65;97963.84;5088619;28;20192;-70
2021/03/03 11:09:30;;;;;;;21.27;13.20;;;;;;;10.97;57.67;97965.66;5078682;28;20176;-69
2021/03/03 11:11:57;;;;;;;17.40;12.37;;;;;;;11.05;58.30;97960.22;5083723;28;20594;-68
2021/03/03 11:14:24;;;;;;;20.73;12.37;;;;;;;11.26;57.07;97950.31;5073125;28;20209;-70
2021/03/03 11:16:53;;;;;;;17.87;11.70;;;;;;;11.45;55.26;97947.91;5089308;28;20234;-70
2021/03/03 11:19:18;;;;;;;19.67;12.67;;;;;;;11.71;54.34;97942.63;5072900;28;20565;-70
2021/03/03 11:21:44;;;;;;;19.27;13.53;;;;;;;11.95;53.60;97947.25;5079027;28;20177;-70
2021/03/03 11:24:10;;;;;;;16.03;12.57;;;;;;;11.98;53.01;97941.56;5081529;28;20714;-70
2021/03/03 11:26:37;;;;;;;19.30;12.07;;;;;;;12.21;52.55;97937.66;5086751;28;20260;-71
2021/03/03 11:29:03;;;;;;;19.47;13.33;;;;;;;12.02;54.54;97936.72;5074654;28;20272;-70